Time;durP1;ratioP1;P1;durP2;ratioP2;P2;SDS_P1;SDS_P2;PMS_P1;PMS_P2;Temp;Humidity;BMP_temperature;BMP_pressure;BME280_temperature;BME280_humidity;BME280_pressure;Samples;Min_cycle;Max_cycle;Signal;HPM_P1;HPM_P2
2022/12/24 00:01:15;;;;;;;1.50;1.30;;;12.00;99.90;;;;;;4995793;28;20214;-54
2022/12/24 00:03:41;;;;;;;1.90;1.70;;;11.90;99.90;;;;;;5000923;28;20204;-54
2022/12/24 00:06:15;;;;;;;2.03;1.30;;;11.90;99.90;;;;;;4994204;28;20219;-54
2022/12/24 00:08:40;;;;;;;2.57;1.47;;;11.90;99.90;;;;;;4991262;28;21820;-54
2022/12/24 00:11:06;;;;;;;3.63;1.50;;;11.90;83.70;;;;;;4993510;28;20449;-52
2022/12/24 00:13:32;;;;;;;2.10;1.60;;;11.80;59.40;;;;;;4997453;28;20662;-53
2022/12/24 00:15:59;;;;;;;2.40;1.50;;;11.80;49.50;;;;;;4996825;28;20456;-54
2022/12/24 00:18:24;;;;;;;2.17;1.10;;;11.90;36.60;;;;;;4992416;28;20427;-54
2022/12/24 00:20:51;;;;;;;1.60;0.93;;;11.90;12.10;;;;;;4998927;28;20505;-55
2022/12/24 00:23:18;;;;;;;1.60;1.50;;;11.90;1.00;;;;;;4995775;28;20707;-51
2022/12/24 00:25:44;;;;;;;2.13;1.20;;;11.90;1.00;;;;;;4991582;28;20449;-53
2022/12/24 00:28:10;;;;;;;1.80;0.90;;;12.00;3.00;;;;;;4994306;28;20539;-52
2022/12/24 00:30:37;;;;;;;1.20;1.10;;;12.00;1.00;;;;;;4996664;28;20537;-52
2022/12/24 00:33:03;;;;;;;1.83;1.07;;;12.00;1.00;;;;;;4996561;28;20189;-53
2022/12/24 00:35:29;;;;;;;1.53;1.43;;;12.00;1.00;;;;;;4992594;28;20435;-53
2022/12/24 00:37:55;;;;;;;2.90;1.10;;;12.00;1.00;;;;;;4986091;28;20922;-54
2022/12/24 00:40:20;;;;;;;2.73;1.20;;;11.90;1.00;;;;;;4994911;28;20255;-53
2022/12/24 00:42:46;;;;;;;2.00;1.10;;;12.10;1.00;;;;;;4995273;28;20186;-54
2022/12/24 00:45:12;;;;;;;6.10;1.30;;;12.10;1.00;;;;;;5003603;28;20209;-53
2022/12/24 00:47:38;;;;;;;4.50;2.07;;;12.10;1.00;;;;;;4995913;28;20233;-56
2022/12/24 00:50:04;;;;;;;1.83;1.40;;;12.00;1.00;;;;;;4999649;28;20237;-55
2022/12/24 00:52:30;;;;;;;1.43;1.20;;;11.90;4.80;;;;;;5000564;28;20558;-56
2022/12/24 00:54:55;;;;;;;9.47;2.37;;;11.90;8.70;;;;;;4997245;28;20439;-55
2022/12/24 00:57:21;;;;;;;1.90;1.37;;;11.90;5.70;;;;;;5000366;28;20194;-53
2022/12/24 00:59:47;;;;;;;2.00;1.43;;;12.10;5.60;;;;;;4998582;28;20210;-53
2022/12/24 01:02:12;;;;;;;5.00;1.50;;;12.00;4.00;;;;;;4994724;28;20215;-52
2022/12/24 01:07:22;;;;;;;7.60;1.73;;;12.00;1.00;;;;;;4995333;28;20201;-52
2022/12/24 01:09:48;;;;;;;3.97;1.40;;;12.00;1.00;;;;;;4989266;28;20851;-53
2022/12/24 01:12:14;;;;;;;3.50;1.40;;;12.10;1.00;;;;;;4998064;28;20486;-53
2022/12/24 01:14:39;;;;;;;3.83;1.30;;;12.10;1.00;;;;;;5001044;28;20237;-51
2022/12/24 01:17:05;;;;;;;3.03;1.80;;;12.10;1.00;;;;;;4994276;28;20199;-56
2022/12/24 01:19:30;;;;;;;4.23;1.57;;;12.10;1.00;;;;;;4997287;28;20269;-55
2022/12/24 01:21:57;;;;;;;2.47;1.80;;;12.20;1.00;;;;;;4993166;28;20191;-53
2022/12/24 01:24:23;;;;;;;4.53;2.17;;;12.30;1.00;;;;;;4995570;28;20212;-53
2022/12/24 01:26:48;;;;;;;4.10;1.60;;;12.30;1.00;;;;;;4972774;28;20907;-52
2022/12/24 01:29:14;;;;;;;5.60;1.63;;;12.30;1.00;;;;;;4995736;28;20192;-53
2022/12/24 01:31:40;;;;;;;2.33;1.33;;;12.30;1.00;;;;;;4996967;28;20558;-54
2022/12/24 01:34:06;;;;;;;8.37;1.77;;;12.30;1.00;;;;;;4996517;28;20421;-52
2022/12/24 01:36:32;;;;;;;5.30;2.33;;;12.30;1.00;;;;;;5001756;28;20193;-55
2022/12/24 01:38:58;;;;;;;6.70;1.93;;;12.40;1.00;;;;;;5003247;28;20843;-54
2022/12/24 01:44:30;;;;;;;4.63;1.97;;;12.20;1.00;;;;;;4984650;28;20286;-52
2022/12/24 01:47:25;;;;;;;5.30;1.60;;;12.20;1.00;;;;;;4992724;28;20450;-53
2022/12/24 01:49:56;;;;;;;4.13;1.70;;;12.20;1.00;;;;;;4996584;28;20521;-52
2022/12/24 01:52:29;;;;;;;5.80;1.60;;;12.20;1.00;;;;;;4991337;28;20466;-52
2022/12/24 01:54:58;;;;;;;6.27;1.80;;;12.20;1.00;;;;;;4995017;28;20460;-55
2022/12/24 01:57:26;;;;;;;6.80;2.03;;;12.20;1.00;;;;;;4996044;28;20496;-53
2022/12/24 01:59:56;;;;;;;4.77;1.83;;;12.20;1.00;;;;;;4998655;28;20444;-54
2022/12/24 02:02:23;;;;;;;4.30;2.10;;;12.30;1.00;;;;;;4989479;28;20450;-53
2022/12/24 02:05:10;;;;;;;3.00;1.60;;;12.20;1.00;;;;;;4989360;28;20440;-52
2022/12/24 02:07:35;;;;;;;4.30;1.97;;;12.20;1.00;;;;;;4995674;28;20429;-55
2022/12/24 02:10:02;;;;;;;6.10;2.00;;;12.20;1.00;;;;;;4994240;28;20483;-52
2022/12/24 02:12:30;;;;;;;4.83;1.80;;;12.20;1.00;;;;;;5001357;28;20590;-53
2022/12/24 02:14:58;;;;;;;5.43;1.87;;;12.20;1.00;;;;;;5000479;28;20425;-55
2022/12/24 02:17:50;;;;;;;4.20;1.97;;;12.20;1.00;;;;;;4997567;28;20505;-51
2022/12/24 02:20:42;;;;;;;6.97;2.27;;;12.30;1.00;;;;;;4988380;28;20481;-55
2022/12/24 02:23:48;;;;;;;6.60;1.73;;;12.30;1.00;;;;;;4996006;28;20453;-52
2022/12/24 02:26:36;;;;;;;3.90;1.90;;;12.20;1.00;;;;;;4995160;28;20470;-53
2022/12/24 02:29:39;;;;;;;2.27;1.50;;;12.30;1.00;;;;;;4997014;28;20954;-52
2022/12/24 02:32:11;;;;;;;7.17;1.80;;;12.30;1.00;;;;;;5001393;28;20483;-54
2022/12/24 02:34:57;;;;;;;5.50;1.67;;;12.30;1.00;;;;;;4990790;28;20469;-53
2022/12/24 02:37:32;;;;;;;3.03;1.40;;;12.30;1.00;;;;;;4993398;28;20423;-54
2022/12/24 02:40:00;;;;;;;4.30;1.67;;;12.30;1.00;;;;;;4994424;28;20478;-55
2022/12/24 02:42:35;;;;;;;4.43;1.30;;;12.40;1.00;;;;;;4994055;28;20925;-53
2022/12/24 02:45:06;;;;;;;7.50;1.63;;;12.40;1.00;;;;;;4996479;28;20981;-52
2022/12/24 02:47:32;;;;;;;3.77;1.17;;;12.40;1.00;;;;;;4996522;28;20453;-51
2022/12/24 02:50:00;;;;;;;2.83;1.53;;;12.40;1.00;;;;;;4995667;28;21025;-54
2022/12/24 02:52:33;;;;;;;4.63;1.37;;;12.30;1.00;;;;;;4991057;28;20464;-51
2022/12/24 02:55:03;;;;;;;4.40;1.40;;;12.30;1.00;;;;;;4998397;28;20453;-53
2022/12/24 02:57:50;;;;;;;3.17;1.70;;;12.20;1.00;;;;;;4998518;28;20455;-53
2022/12/24 03:00:18;;;;;;;4.20;1.40;;;12.10;1.00;;;;;;4993857;28;21174;-51
2022/12/24 03:03:11;;;;;;;5.90;1.63;;;12.10;1.00;;;;;;4995890;28;20529;-52
2022/12/24 03:05:58;;;;;;;7.60;1.40;;;12.10;1.00;;;;;;4994054;28;20441;-51
2022/12/24 03:08:43;;;;;;;2.13;1.10;;;12.10;1.00;;;;;;5005306;28;20444;-52
2022/12/24 03:11:12;;;;;;;5.60;1.40;;;12.10;1.00;;;;;;4995756;28;20536;-53
2022/12/24 03:13:40;;;;;;;3.33;1.93;;;12.20;1.00;;;;;;4991839;28;20447;-53
2022/12/24 03:16:10;;;;;;;3.27;1.20;;;12.20;1.00;;;;;;4995831;28;20440;-51
2022/12/24 03:18:39;;;;;;;4.47;1.67;;;12.20;1.00;;;;;;4992730;28;20452;-52
2022/12/24 03:21:10;;;;;;;3.77;1.40;;;12.30;1.00;;;;;;4999792;28;20514;-54
2022/12/24 03:23:37;;;;;;;5.77;1.33;;;12.30;1.00;;;;;;4991615;28;20472;-54
2022/12/24 03:26:07;;;;;;;3.53;1.40;;;12.10;1.00;;;;;;5000113;28;20922;-53
2022/12/24 03:28:36;;;;;;;5.87;1.80;;;12.00;1.00;;;;;;4997241;28;20479;-53
2022/12/24 03:31:03;;;;;;;3.43;1.33;;;11.70;1.00;;;;;;4995341;28;20984;-55
2022/12/24 03:33:29;;;;;;;3.20;1.37;;;11.90;1.00;;;;;;4995849;28;20427;-52
2022/12/24 03:35:55;;;;;;;2.93;1.60;;;11.90;1.00;;;;;;4982105;28;20426;-52
2022/12/24 03:38:21;;;;;;;7.47;1.83;;;12.00;1.00;;;;;;4990929;28;20465;-54
2022/12/24 03:40:46;;;;;;;3.87;2.00;;;12.00;1.00;;;;;;4993141;28;20204;-51
2022/12/24 03:43:12;;;;;;;3.23;1.40;;;12.00;1.00;;;;;;4992690;28;20249;-55
2022/12/24 03:45:38;;;;;;;4.27;1.30;;;12.00;1.00;;;;;;5001228;28;20202;-51
2022/12/24 03:48:03;;;;;;;2.47;1.63;;;11.90;1.00;;;;;;4994658;28;20194;-53
2022/12/24 03:50:29;;;;;;;3.03;1.10;;;12.00;1.00;;;;;;4996812;28;20211;-54
2022/12/24 03:52:55;;;;;;;1.60;0.77;;;12.00;1.00;;;;;;4996265;28;20428;-51
2022/12/24 03:55:21;;;;;;;2.70;0.83;;;12.10;1.00;;;;;;4998039;28;20209;-52
2022/12/24 03:57:47;;;;;;;2.47;1.40;;;12.10;1.00;;;;;;4994790;28;20190;-52
2022/12/24 04:00:13;;;;;;;5.40;1.10;;;12.10;1.00;;;;;;4989083;28;20472;-53
2022/12/24 04:02:39;;;;;;;4.90;1.53;;;12.10;1.00;;;;;;4991507;28;20648;-53
2022/12/24 04:05:05;;;;;;;1.77;1.13;;;12.20;1.00;;;;;;5000991;28;20441;-53
2022/12/24 04:07:32;;;;;;;4.17;1.00;;;12.20;1.00;;;;;;4998376;28;20532;-54
2022/12/24 04:09:58;;;;;;;3.07;1.03;;;12.10;1.00;;;;;;5002324;28;20413;-54
2022/12/24 04:12:23;;;;;;;2.53;1.30;;;12.10;1.00;;;;;;5000144;28;20430;-52
2022/12/24 04:14:49;;;;;;;2.90;1.10;;;12.20;1.00;;;;;;4999832;28;20204;-51
2022/12/24 04:17:15;;;;;;;2.43;1.20;;;12.10;1.00;;;;;;4998073;28;20285;-54
2022/12/24 04:19:41;;;;;;;3.13;1.97;;;12.20;1.00;;;;;;5000296;28;20244;-54
2022/12/24 04:22:06;;;;;;;2.50;1.60;;;12.10;1.00;;;;;;4993597;28;20548;-53
2022/12/24 04:24:32;;;;;;;4.80;1.33;;;12.20;1.00;;;;;;5002760;28;20196;-54
2022/12/24 04:26:57;;;;;;;2.73;1.07;;;12.20;1.00;;;;;;5000454;28;20203;-52
2022/12/24 04:29:23;;;;;;;4.70;1.47;;;12.20;1.00;;;;;;4991087;28;20190;-53
2022/12/24 04:31:49;;;;;;;3.47;1.17;;;12.20;1.00;;;;;;4991410;28;20190;-52
2022/12/24 04:34:14;;;;;;;2.37;1.10;;;12.30;1.00;;;;;;4983917;28;20739;-52
2022/12/24 04:36:40;;;;;;;3.40;1.00;;;12.40;1.00;;;;;;4994751;28;20243;-55
2022/12/24 04:39:06;;;;;;;2.60;0.90;;;12.40;1.00;;;;;;5006832;28;20213;-51
2022/12/24 04:41:31;;;;;;;4.07;1.60;;;12.40;1.00;;;;;;5002434;28;20306;-52
2022/12/24 04:43:58;;;;;;;6.40;1.63;;;12.40;1.00;;;;;;4998083;28;20199;-53
2022/12/24 04:46:26;;;;;;;2.77;0.93;;;12.40;1.00;;;;;;5002630;28;20194;-52
2022/12/24 04:48:53;;;;;;;2.57;1.30;;;12.40;1.00;;;;;;4996482;28;20537;-53
2022/12/24 04:51:19;;;;;;;3.00;1.30;;;12.40;1.00;;;;;;4993866;28;20432;-52
2022/12/24 04:53:46;;;;;;;3.50;1.40;;;12.40;1.00;;;;;;4999219;28;20824;-52
2022/12/24 04:56:16;;;;;;;3.70;1.60;;;12.40;1.00;;;;;;4990704;28;20431;-53
2022/12/24 04:58:42;;;;;;;3.77;1.60;;;12.40;1.00;;;;;;5000252;28;20420;-51
2022/12/24 05:01:12;;;;;;;4.67;1.33;;;12.40;1.00;;;;;;4994882;28;20465;-51
2022/12/24 05:03:37;;;;;;;6.17;2.10;;;12.30;1.00;;;;;;4999634;28;20230;-51
2022/12/24 05:06:09;;;;;;;3.67;1.40;;;12.20;1.00;;;;;;4993881;28;20697;-55
2022/12/24 05:08:35;;;;;;;3.43;1.27;;;12.30;1.00;;;;;;5001586;28;20648;-53
2022/12/24 05:11:01;;;;;;;8.43;2.00;;;12.30;1.00;;;;;;4994301;28;20575;-52
2022/12/24 05:13:28;;;;;;;5.63;1.87;;;12.30;1.00;;;;;;4995796;28;20199;-52
2022/12/24 05:15:54;;;;;;;7.90;1.97;;;12.20;1.00;;;;;;4991021;28;20507;-55
2022/12/24 05:18:20;;;;;;;3.83;1.50;;;12.10;1.00;;;;;;4994079;28;20819;-51
2022/12/24 05:20:46;;;;;;;2.93;1.30;;;12.00;1.00;;;;;;4994139;28;20481;-54
2022/12/24 05:26:25;;;;;;;2.77;1.50;;;12.00;1.00;;;;;;4991120;28;20582;-52
2022/12/24 05:28:55;;;;;;;4.27;1.87;;;12.00;1.00;;;;;;4998631;28;20467;-52
2022/12/24 05:31:24;;;;;;;3.67;1.70;;;12.00;1.00;;;;;;5001243;28;20536;-53
2022/12/24 05:33:50;;;;;;;2.43;1.50;;;12.00;1.00;;;;;;4974199;28;20459;-55
2022/12/24 05:36:16;;;;;;;3.40;1.83;;;12.00;1.00;;;;;;4992402;28;20454;-53
2022/12/24 05:38:42;;;;;;;2.90;1.40;;;11.90;1.00;;;;;;4991810;28;20434;-53
2022/12/24 05:41:08;;;;;;;2.70;1.47;;;11.90;1.00;;;;;;4991378;28;20461;-53
2022/12/24 05:43:38;;;;;;;5.80;1.80;;;11.90;1.00;;;;;;4990313;28;20434;-52
2022/12/24 05:46:07;;;;;;;4.10;1.50;;;11.90;1.00;;;;;;4991447;28;20453;-52
2022/12/24 05:48:33;;;;;;;5.43;1.70;;;11.80;1.00;;;;;;4995412;28;20481;-52
2022/12/24 05:51:03;;;;;;;3.83;2.00;;;11.70;1.00;;;;;;5000200;28;20442;-52
2022/12/24 05:53:29;;;;;;;4.67;1.40;;;11.80;1.00;;;;;;5001766;28;20192;-52
2022/12/24 05:56:00;;;;;;;3.60;1.20;;;11.80;1.00;;;;;;5006050;28;20460;-55
2022/12/24 05:58:26;;;;;;;5.40;1.97;;;11.80;1.00;;;;;;4989583;28;20453;-53
2022/12/24 06:00:53;;;;;;;5.03;1.53;;;11.80;1.00;;;;;;4993895;28;20839;-52
2022/12/24 06:03:18;;;;;;;7.47;2.03;;;11.80;1.00;;;;;;4988952;28;20588;-51
2022/12/24 06:05:44;;;;;;;4.93;1.10;;;11.90;1.00;;;;;;4980610;28;20457;-52
2022/12/24 06:08:10;;;;;;;3.10;1.30;;;11.80;1.00;;;;;;4990339;28;20286;-53
2022/12/24 06:10:35;;;;;;;4.40;1.73;;;11.80;1.00;;;;;;4993395;28;20191;-54
2022/12/24 06:13:01;;;;;;;6.30;1.40;;;11.90;1.00;;;;;;5000662;28;20513;-51
2022/12/24 06:15:26;;;;;;;2.83;1.73;;;11.90;1.00;;;;;;4985216;28;20233;-51
2022/12/24 06:17:52;;;;;;;8.67;4.47;;;11.80;1.00;;;;;;4979502;28;20191;-52
2022/12/24 06:20:18;;;;;;;8.33;2.30;;;11.80;1.00;;;;;;4993929;28;20216;-55
2022/12/24 06:22:43;;;;;;;10.53;2.93;;;11.70;1.00;;;;;;4989368;28;20186;-52
2022/12/24 06:25:09;;;;;;;6.03;2.03;;;11.70;1.00;;;;;;4989494;28;20197;-53
2022/12/24 06:27:34;;;;;;;3.67;1.70;;;11.70;1.00;;;;;;4991314;28;20194;-52
2022/12/24 06:30:00;;;;;;;6.13;1.70;;;11.70;1.00;;;;;;4997726;28;20199;-53
2022/12/24 06:32:25;;;;;;;3.60;1.57;;;11.70;1.00;;;;;;4988089;28;20189;-53
2022/12/24 06:34:51;;;;;;;2.40;1.60;;;11.70;1.00;;;;;;4989155;28;20206;-52
2022/12/24 06:37:19;;;;;;;5.40;1.90;;;11.70;1.00;;;;;;4997222;28;20241;-54
2022/12/24 06:39:46;;;;;;;5.67;1.80;;;11.60;1.00;;;;;;5001254;28;20644;-52
2022/12/24 06:42:12;;;;;;;6.17;2.00;;;11.60;1.00;;;;;;4996747;28;20448;-52
2022/12/24 06:44:38;;;;;;;7.07;1.97;;;11.70;1.00;;;;;;4993023;28;20942;-54
2022/12/24 06:47:04;;;;;;;4.87;1.30;;;11.60;1.00;;;;;;4992710;28;20442;-53
2022/12/24 06:49:30;;;;;;;2.40;1.57;;;11.70;1.00;;;;;;4994533;28;20478;-54
2022/12/24 06:51:55;;;;;;;7.67;1.83;;;11.70;1.00;;;;;;4983364;28;20195;-54
2022/12/24 06:54:21;;;;;;;4.13;1.73;;;11.70;1.00;;;;;;4995873;28;20190;-52
2022/12/24 06:56:46;;;;;;;5.50;2.87;;;11.80;1.00;;;;;;4997588;28;20195;-52
2022/12/24 06:59:12;;;;;;;4.60;1.50;;;11.70;1.00;;;;;;4990811;28;20659;-53
2022/12/24 07:01:37;;;;;;;3.40;1.80;;;11.80;1.00;;;;;;4989013;28;20223;-52
2022/12/24 07:04:03;;;;;;;4.03;1.47;;;11.90;1.00;;;;;;4988165;28;20299;-52
2022/12/24 07:06:29;;;;;;;3.10;1.20;;;12.00;1.00;;;;;;4987479;28;20200;-53
2022/12/24 07:08:55;;;;;;;4.13;1.70;;;12.00;1.00;;;;;;4991168;28;20184;-53
2022/12/24 07:11:22;;;;;;;4.77;2.00;;;11.90;1.00;;;;;;4994024;28;20424;-54
2022/12/24 07:13:48;;;;;;;3.63;1.83;;;12.00;1.00;;;;;;4994754;28;20208;-54
2022/12/24 07:16:14;;;;;;;5.90;1.73;;;12.00;1.00;;;;;;4997773;28;20450;-55
2022/12/24 07:18:39;;;;;;;4.97;1.90;;;12.00;1.00;;;;;;4984368;28;20257;-53
2022/12/24 07:21:06;;;;;;;3.83;1.20;;;12.00;1.00;;;;;;4994386;28;20994;-54
2022/12/24 07:23:32;;;;;;;6.43;1.60;;;12.00;1.00;;;;;;4995988;28;20729;-52
2022/12/24 07:26:02;;;;;;;3.60;1.67;;;12.00;1.00;;;;;;4986253;28;20454;-52
2022/12/24 07:28:28;;;;;;;4.63;1.40;;;12.00;1.00;;;;;;4997097;28;20799;-52
2022/12/24 07:30:55;;;;;;;5.70;1.27;;;12.10;1.00;;;;;;4994596;28;20435;-52
2022/12/24 07:33:21;;;;;;;3.70;1.53;;;12.10;1.00;;;;;;4990353;28;20539;-52
2022/12/24 07:35:47;;;;;;;8.50;2.60;;;11.60;1.00;;;;;;4971165;28;20539;-54
2022/12/24 07:38:12;;;;;;;10.13;1.90;;;11.90;1.00;;;;;;4989357;28;20231;-55
2022/12/24 07:40:38;;;;;;;5.87;2.77;;;11.90;1.00;;;;;;5000379;28;20226;-52
2022/12/24 07:43:04;;;;;;;6.80;1.80;;;11.80;1.00;;;;;;4992846;28;20726;-56
2022/12/24 07:45:29;;;;;;;4.77;1.90;;;11.90;1.00;;;;;;5000693;28;20182;-52
2022/12/24 07:47:55;;;;;;;9.30;2.27;;;12.00;1.00;;;;;;4998019;28;20230;-51
2022/12/24 07:50:20;;;;;;;5.10;1.80;;;12.00;1.00;;;;;;4997726;28;20192;-52
2022/12/24 07:52:46;;;;;;;6.37;2.40;;;12.00;1.00;;;;;;4996526;28;20876;-55
2022/12/24 07:55:12;;;;;;;3.73;1.80;;;11.80;1.00;;;;;;4990814;28;20198;-53
2022/12/24 07:57:37;;;;;;;2.50;1.23;;;11.80;1.00;;;;;;4996362;28;20270;-52
2022/12/24 08:00:04;;;;;;;7.03;2.23;;;11.90;1.00;;;;;;5002866;28;20245;-51
2022/12/24 08:02:30;;;;;;;5.40;1.57;;;11.90;1.00;;;;;;4998126;28;20175;-54
2022/12/24 08:04:55;;;;;;;6.23;1.70;;;11.80;1.00;;;;;;4995418;28;20423;-52
2022/12/24 08:07:21;;;;;;;4.80;1.77;;;11.70;1.00;;;;;;4998355;28;20432;-51
2022/12/24 08:09:46;;;;;;;6.80;1.73;;;11.80;1.00;;;;;;4993134;28;20191;-52
2022/12/24 08:12:12;;;;;;;5.00;3.33;;;11.90;1.00;;;;;;5006401;28;20840;-54
2022/12/24 08:14:38;;;;;;;3.37;2.27;;;11.90;1.00;;;;;;4996667;28;20186;-52
2022/12/24 08:17:03;;;;;;;11.33;6.03;;;11.90;1.00;;;;;;5003363;28;20186;-54
2022/12/24 08:19:29;;;;;;;3.23;1.20;;;11.80;1.00;;;;;;4997189;28;20186;-54
2022/12/24 08:21:54;;;;;;;4.33;1.57;;;11.70;1.00;;;;;;4997691;28;20189;-54
2022/12/24 08:24:20;;;;;;;3.23;1.23;;;11.70;1.00;;;;;;5003999;28;20186;-51
2022/12/24 08:26:45;;;;;;;4.73;1.30;;;11.70;1.00;;;;;;4995700;28;20641;-55
2022/12/24 08:29:11;;;;;;;5.43;1.60;;;11.60;1.00;;;;;;5003308;28;20183;-54
2022/12/24 08:31:37;;;;;;;4.30;1.57;;;11.70;1.00;;;;;;4993255;28;20273;-54
2022/12/24 08:34:04;;;;;;;7.47;1.90;;;11.80;1.00;;;;;;4994176;28;20195;-52
2022/12/24 08:36:29;;;;;;;3.73;2.20;;;11.80;1.00;;;;;;4996859;28;20237;-54
2022/12/24 08:38:55;;;;;;;5.57;2.07;;;11.70;1.00;;;;;;5001211;28;20923;-55
2022/12/24 08:41:20;;;;;;;7.30;2.17;;;11.70;1.00;;;;;;4988457;28;20205;-54
2022/12/24 08:43:46;;;;;;;4.80;1.73;;;11.70;1.00;;;;;;5002423;28;20724;-53
2022/12/24 08:46:12;;;;;;;6.60;2.60;;;11.80;1.00;;;;;;4985420;28;20183;-53
2022/12/24 08:48:37;;;;;;;6.93;2.30;;;11.70;1.00;;;;;;4996332;28;20707;-54
2022/12/24 08:51:10;;;;;;;2.70;1.30;;;11.70;1.00;;;;;;4993302;28;20198;-52
2022/12/24 08:53:36;;;;;;;5.63;1.97;;;11.70;1.00;;;;;;5000095;28;20193;-54
2022/12/24 08:56:03;;;;;;;7.53;3.07;;;11.80;1.00;;;;;;5002190;28;20448;-53
2022/12/24 08:58:30;;;;;;;7.77;2.43;;;11.90;1.00;;;;;;4968968;28;20454;-54
2022/12/24 09:00:56;;;;;;;9.87;3.17;;;11.80;1.00;;;;;;5001805;28;20468;-53
2022/12/24 09:03:21;;;;;;;6.27;1.73;;;12.00;1.00;;;;;;5005862;28;20988;-55
2022/12/24 09:05:47;;;;;;;4.03;1.57;;;12.00;1.00;;;;;;4994553;28;20275;-54
2022/12/24 09:08:12;;;;;;;5.10;2.00;;;12.00;1.00;;;;;;4992468;28;20195;-54
2022/12/24 09:10:38;;;;;;;4.70;1.53;;;12.00;1.00;;;;;;4990723;28;20201;-53
2022/12/24 09:13:04;;;;;;;9.10;2.40;;;12.10;1.00;;;;;;4998769;28;20210;-53
2022/12/24 09:15:29;;;;;;;7.73;1.97;;;12.10;1.00;;;;;;4994563;28;20204;-54
2022/12/24 09:17:55;;;;;;;4.03;2.07;;;12.20;1.00;;;;;;5005943;28;20195;-54
2022/12/24 09:20:21;;;;;;;7.47;2.03;;;12.20;1.00;;;;;;4996950;28;20216;-52
2022/12/24 09:22:47;;;;;;;6.07;3.10;;;12.20;1.00;;;;;;5001485;28;21072;-52
2022/12/24 09:25:12;;;;;;;6.30;2.17;;;12.30;1.00;;;;;;4993274;28;20470;-55
2022/12/24 09:27:38;;;;;;;8.87;2.30;;;12.20;1.00;;;;;;4989488;28;20223;-54
2022/12/24 09:30:05;;;;;;;11.57;3.93;;;12.20;1.00;;;;;;4997852;28;20183;-54
2022/12/24 09:32:31;;;;;;;6.27;2.00;;;12.30;1.00;;;;;;5000689;28;20546;-54
2022/12/24 09:34:56;;;;;;;6.90;1.97;;;12.40;1.00;;;;;;4991153;28;20487;-53
2022/12/24 09:37:22;;;;;;;6.70;2.03;;;12.40;1.00;;;;;;5000441;28;20701;-53
2022/12/24 09:39:48;;;;;;;7.03;3.60;;;12.40;1.00;;;;;;4987115;28;20211;-52
2022/12/24 09:42:13;;;;;;;8.97;1.90;;;12.40;1.00;;;;;;5001583;28;20198;-52
2022/12/24 09:44:52;;;;;;;8.23;2.40;;;12.30;1.00;;;;;;5000870;28;20523;-55
2022/12/24 09:47:28;;;;;;;6.87;2.80;;;12.40;1.00;;;;;;4997184;28;20192;-53
2022/12/24 09:49:57;;;;;;;6.90;2.20;;;12.50;1.00;;;;;;5004547;28;20567;-52
2022/12/24 09:52:31;;;;;;;4.83;1.90;;;12.60;1.00;;;;;;4991757;28;20451;-56
2022/12/24 09:55:19;;;;;;;10.93;2.10;;;12.70;1.00;;;;;;4989123;28;20427;-56
2022/12/24 09:57:48;;;;;;;5.50;2.30;;;12.80;1.00;;;;;;4988773;28;20483;-56
2022/12/24 10:00:30;;;;;;;4.87;1.60;;;12.90;1.00;;;;;;4987074;28;20455;-56
2022/12/24 10:02:56;;;;;;;8.27;2.60;;;12.70;1.00;;;;;;4989061;28;20426;-57
2022/12/24 10:05:53;;;;;;;5.43;2.57;;;12.70;1.00;;;;;;4988565;28;20453;-57
2022/12/24 10:08:53;;;;;;;9.90;4.97;;;12.70;1.00;;;;;;4969973;28;20234;-55
2022/12/24 10:11:45;;;;;;;4.53;2.13;;;13.70;1.00;;;;;;4988772;28;20458;-57
2022/12/24 10:14:20;;;;;;;4.40;2.43;;;12.70;1.00;;;;;;4986553;28;20458;-57
2022/12/24 10:17:15;;;;;;;7.07;2.77;;;12.60;1.00;;;;;;4986910;28;20432;-57
2022/12/24 10:19:55;;;;;;;10.23;2.90;;;12.60;1.00;;;;;;4989685;28;20465;-56
2022/12/24 10:22:47;;;;;;;6.60;2.10;;;12.60;1.00;;;;;;4988705;28;20511;-57
2022/12/24 10:25:22;;;;;;;7.43;2.50;;;12.40;1.00;;;;;;4988747;28;20438;-58
2022/12/24 10:27:49;;;;;;;6.97;2.70;;;12.40;1.00;;;;;;4989740;28;21008;-57
2022/12/24 10:30:19;;;;;;;6.70;3.43;;;12.40;1.00;;;;;;4989761;28;20525;-57
2022/12/24 10:32:46;;;;;;;6.70;2.63;;;12.50;1.00;;;;;;4987863;28;20468;-57
2022/12/24 10:35:15;;;;;;;9.47;2.83;;;12.70;1.00;;;;;;4986981;28;20989;-57
2022/12/24 10:37:46;;;;;;;5.60;2.30;;;12.80;1.00;;;;;;4983468;28;20796;-55
2022/12/24 10:40:43;;;;;;;11.50;2.87;;;12.80;1.00;;;;;;4986276;28;20452;-59
2022/12/24 10:43:15;;;;;;;8.63;2.40;;;12.80;1.00;;;;;;4975941;28;20458;-54
2022/12/24 10:45:44;;;;;;;10.23;2.97;;;12.80;1.00;;;;;;4984521;28;20479;-54
2022/12/24 10:48:21;;;;;;;3.57;1.70;;;12.80;1.00;;;;;;4986317;28;20542;-55
2022/12/24 10:51:13;;;;;;;12.57;2.63;;;12.80;1.00;;;;;;4970800;28;20768;-54
2022/12/24 10:53:50;;;;;;;5.40;2.20;;;12.80;1.00;;;;;;4984995;28;20818;-55
2022/12/24 10:56:18;;;;;;;5.20;2.03;;;12.90;1.00;;;;;;4979614;28;20452;-55
2022/12/24 10:58:46;;;;;;;7.60;2.93;;;13.00;1.00;;;;;;4985884;28;20520;-54
2022/12/24 11:01:12;;;;;;;8.13;3.03;;;13.00;1.00;;;;;;4981491;28;20466;-54
2022/12/24 11:03:38;;;;;;;4.20;2.13;;;13.10;1.00;;;;;;4971819;28;20450;-55
2022/12/24 11:06:13;;;;;;;5.60;1.93;;;13.30;1.00;;;;;;4986443;28;20505;-54
2022/12/24 11:08:43;;;;;;;5.87;1.80;;;13.30;1.00;;;;;;4988559;28;20448;-56
2022/12/24 11:11:19;;;;;;;5.03;1.87;;;13.20;1.00;;;;;;4991588;28;20441;-54
2022/12/24 11:13:50;;;;;;;3.67;1.67;;;13.10;1.00;;;;;;4987376;28;20445;-54
2022/12/24 11:16:28;;;;;;;11.03;2.60;;;13.20;1.00;;;;;;4979339;28;20834;-54
2022/12/24 11:18:56;;;;;;;7.93;1.90;;;13.10;1.00;;;;;;5003332;28;20954;-55
2022/12/24 11:21:28;;;;;;;5.50;1.73;;;12.90;1.00;;;;;;4994024;28;20789;-55
2022/12/24 11:24:25;;;;;;;4.20;1.40;;;12.90;1.00;;;;;;4994731;28;20995;-54
2022/12/24 11:26:50;;;;;;;3.00;2.07;;;12.90;1.00;;;;;;4992392;28;20585;-55
2022/12/24 11:29:26;;;;;;;4.10;1.83;;;12.90;1.00;;;;;;4995352;28;20513;-54
2022/12/24 11:32:08;;;;;;;6.40;2.10;;;12.90;1.00;;;;;;4993690;28;20210;-56
2022/12/24 11:34:34;;;;;;;6.53;2.40;;;12.90;1.00;;;;;;4999128;28;20471;-55
2022/12/24 11:37:10;;;;;;;4.20;1.77;;;12.80;1.00;;;;;;4990293;28;20491;-55
2022/12/24 11:39:40;;;;;;;2.60;1.13;;;12.80;1.00;;;;;;4988260;28;20326;-55
2022/12/24 11:42:19;;;;;;;4.10;1.40;;;12.80;1.00;;;;;;4992161;28;20442;-54
2022/12/24 11:44:49;;;;;;;5.50;1.50;;;12.80;1.00;;;;;;4994560;28;20456;-54
2022/12/24 11:47:14;;;;;;;3.40;1.40;;;12.90;1.00;;;;;;4992525;28;20577;-53
2022/12/24 11:49:40;;;;;;;3.77;1.17;;;12.90;1.00;;;;;;4993916;28;20503;-55
2022/12/24 11:52:09;;;;;;;7.00;2.03;;;13.00;1.00;;;;;;4991556;28;20233;-54
2022/12/24 11:55:15;;;;;;;4.30;1.27;;;13.00;1.00;;;;;;4996251;28;20771;-54
2022/12/24 11:58:00;;;;;;;4.93;1.70;;;13.10;1.00;;;;;;4924724;28;20445;-53
2022/12/24 12:00:27;;;;;;;8.00;3.50;;;13.00;1.00;;;;;;5002793;28;20480;-55
2022/12/24 12:02:56;;;;;;;3.17;1.73;;;13.10;1.00;;;;;;5001504;28;20431;-54
2022/12/24 12:05:26;;;;;;;3.07;1.70;;;13.10;1.00;;;;;;4999327;28;20419;-52
2022/12/24 12:07:57;;;;;;;2.40;1.53;;;13.10;1.00;;;;;;5002108;28;20444;-53
2022/12/24 12:10:26;;;;;;;4.40;1.70;;;13.20;1.00;;;;;;4996883;28;20419;-54
2022/12/24 12:12:58;;;;;;;5.40;2.23;;;13.30;1.00;;;;;;4991623;28;21092;-55
2022/12/24 12:15:33;;;;;;;3.90;1.27;;;13.20;1.00;;;;;;5003555;28;20533;-55
2022/12/24 12:18:13;;;;;;;5.60;1.73;;;13.20;1.00;;;;;;5000616;28;20486;-53
2022/12/24 12:20:47;;;;;;;6.97;1.50;;;13.20;1.00;;;;;;4998041;28;21030;-53
2022/12/24 12:23:29;;;;;;;2.57;1.60;;;13.20;1.00;;;;;;4999304;28;20415;-53
2022/12/24 12:26:00;;;;;;;6.47;1.83;;;13.10;1.00;;;;;;4991458;28;20521;-54
2022/12/24 12:28:47;;;;;;;3.57;1.10;;;12.90;1.00;;;;;;4996060;28;22328;-53
2022/12/24 12:31:21;;;;;;;5.00;1.83;;;12.90;1.00;;;;;;4992056;28;20425;-53
2022/12/24 12:34:22;;;;;;;6.40;1.70;;;12.90;1.00;;;;;;4985846;28;20474;-54
2022/12/24 12:36:53;;;;;;;6.70;2.30;;;12.90;1.00;;;;;;4939218;28;20568;-52
2022/12/24 12:39:19;;;;;;;5.70;1.90;;;12.90;1.00;;;;;;4995741;28;20465;-52
2022/12/24 12:42:02;;;;;;;4.10;1.70;;;13.10;1.00;;;;;;4991859;28;20472;-53
2022/12/24 12:45:05;;;;;;;3.90;1.60;;;13.20;1.00;;;;;;4992746;28;20455;-53
2022/12/24 12:47:36;;;;;;;3.23;2.10;;;13.00;1.00;;;;;;4998674;28;20418;-55
2022/12/24 12:50:26;;;;;;;5.33;1.60;;;12.90;1.00;;;;;;4989023;28;20558;-54
2022/12/24 12:52:57;;;;;;;3.47;1.50;;;12.70;1.00;;;;;;4998973;28;20433;-53
2022/12/24 12:55:34;;;;;;;3.90;1.80;;;12.70;1.00;;;;;;4991466;28;20455;-52
2022/12/24 12:58:07;;;;;;;2.13;1.50;;;12.70;1.00;;;;;;4985781;28;20449;-54
2022/12/24 13:00:37;;;;;;;6.60;2.17;;;12.90;1.00;;;;;;4994527;28;20491;-54
2022/12/24 13:03:23;;;;;;;4.20;2.07;;;13.10;1.00;;;;;;4998738;28;20544;-53
2022/12/24 13:06:09;;;;;;;8.43;2.73;;;13.20;1.00;;;;;;4993854;28;20450;-60
2022/12/24 13:08:41;;;;;;;5.63;1.93;;;13.20;1.00;;;;;;4998296;28;20936;-55
2022/12/24 13:11:30;;;;;;;2.53;1.63;;;13.40;1.00;;;;;;4990655;28;20427;-56
2022/12/24 13:14:13;;;;;;;3.63;1.40;;;13.40;1.00;;;;;;4982470;28;20470;-55
2022/12/24 13:17:09;;;;;;;5.67;2.33;;;13.30;1.00;;;;;;4989139;28;20426;-55
2022/12/24 13:19:48;;;;;;;4.77;2.00;;;13.20;1.00;;;;;;4998669;28;20433;-55